Time;durP1;ratioP1;P1;durP2;ratioP2;P2;SDS_P1;SDS_P2;PMS_P1;PMS_P2;Temp;Humidity;BMP_temperature;BMP_pressure;BME280_temperature;BME280_humidity;BME280_pressure;Samples;Min_cycle;Max_cycle;Signal;HPM_P1;HPM_P2
2023/01/14 00:01:26;;;;;;;10.30;1.80;;;;;;;;;;4994278;28;20207;-69
2023/01/14 00:03:52;;;;;;;15.17;2.73;;;;;;;;;;5002117;28;20195;-69
2023/01/14 00:06:20;;;;;;;15.18;1.48;;;;;;;;;;5001497;28;20203;-68
2023/01/14 00:08:46;;;;;;;14.33;2.03;;;;;;;;;;5006706;28;20658;-69
2023/01/14 00:11:14;;;;;;;12.63;2.60;;;;;;;;;;5006614;28;20183;-68
2023/01/14 00:13:40;;;;;;;14.48;2.22;;;;;;;;;;4998035;28;20197;-69
2023/01/14 00:16:09;;;;;;;13.47;2.10;;;;;;;;;;5008321;28;20190;-69
2023/01/14 00:18:35;;;;;;;12.07;2.17;;;;;;;;;;4998751;28;20688;-69
2023/01/14 00:21:13;;;;;;;11.60;1.55;;;;;;;;;;5000262;28;20195;-68
2023/01/14 00:23:38;;;;;;;18.23;2.63;;;;;;;;;;4994176;28;20244;-69
2023/01/14 00:26:12;;;;;;;14.88;2.13;;;;;;;;;;5005469;28;20700;-69
2023/01/14 00:28:37;;;;;;;16.52;2.65;;;;;;;;;;4998447;28;20691;-68
2023/01/14 00:31:05;;;;;;;16.73;2.27;;;;;;;;;;4987386;28;20191;-69
2023/01/14 00:33:31;;;;;;;14.77;2.67;;;;;;;;;;4992979;28;20184;-70
2023/01/14 00:35:56;;;;;;;14.93;2.20;;;;;;;;;;4988696;28;20179;-69
2023/01/14 00:38:22;;;;;;;16.07;3.70;;;;;;;;;;4987776;28;20199;-69
2023/01/14 00:40:47;;;;;;;16.17;2.22;;;;;;;;;;4982517;28;20703;-69
2023/01/14 00:43:12;;;;;;;16.13;2.40;;;;;;;;;;4989139;28;20207;-69
2023/01/14 00:45:38;;;;;;;12.95;2.20;;;;;;;;;;4984581;28;20195;-69
2023/01/14 00:48:03;;;;;;;14.50;2.58;;;;;;;;;;4989203;28;20191;-68
2023/01/14 00:50:29;;;;;;;17.08;2.30;;;;;;;;;;4971133;28;20212;-68
2023/01/14 00:52:54;;;;;;;13.63;2.15;;;;;;;;;;4987538;28;20278;-69
2023/01/14 00:55:19;;;;;;;15.63;2.27;;;;;;;;;;4982963;28;20330;-66
2023/01/14 00:57:45;;;;;;;11.65;2.70;;;;;;;;;;4974781;28;20192;-68
2023/01/14 01:00:11;;;;;;;14.98;2.40;;;;;;;;;;4980552;28;20223;-68
2023/01/14 01:02:36;;;;;;;14.63;2.10;;;;;;;;;;4982475;28;20202;-68
2023/01/14 01:05:02;;;;;;;22.08;2.30;;;;;;;;;;4981528;28;20253;-69
2023/01/14 01:07:27;;;;;;;11.98;2.20;;;;;;;;;;4997818;28;20227;-68
2023/01/14 01:09:52;;;;;;;12.77;2.13;;;;;;;;;;4988623;28;20555;-68
2023/01/14 01:12:18;;;;;;;17.60;2.20;;;;;;;;;;4976942;28;20671;-70
2023/01/14 01:14:43;;;;;;;21.10;2.47;;;;;;;;;;4977052;28;20215;-68
2023/01/14 01:17:09;;;;;;;12.55;2.00;;;;;;;;;;4992603;28;20179;-68
2023/01/14 01:19:34;;;;;;;9.75;1.90;;;;;;;;;;4984796;28;20887;-68
2023/01/14 01:21:59;;;;;;;16.60;2.17;;;;;;;;;;4992880;28;20191;-69
2023/01/14 01:24:25;;;;;;;12.90;2.15;;;;;;;;;;4998466;28;20191;-68
2023/01/14 01:26:50;;;;;;;19.90;1.83;;;;;;;;;;4997124;28;20229;-68
2023/01/14 01:29:15;;;;;;;21.80;2.38;;;;;;;;;;4987123;28;20193;-68
2023/01/14 01:31:41;;;;;;;17.60;1.87;;;;;;;;;;4989444;28;20217;-68
2023/01/14 01:34:06;;;;;;;12.50;1.98;;;;;;;;;;4982358;28;20270;-69
2023/01/14 01:36:32;;;;;;;17.73;2.10;;;;;;;;;;4993115;28;20179;-69
2023/01/14 01:38:57;;;;;;;17.00;2.10;;;;;;;;;;5001170;28;20223;-68
2023/01/14 01:41:26;;;;;;;20.13;3.03;;;;;;;;;;4980222;28;20527;-68
2023/01/14 01:44:10;;;;;;;20.20;2.17;;;;;;;;;;4994225;28;20645;-68
2023/01/14 01:46:36;;;;;;;18.60;2.50;;;;;;;;;;4993087;28;20314;-68
2023/01/14 01:49:22;;;;;;;21.03;2.57;;;;;;;;;;4995467;28;20185;-68
2023/01/14 01:51:53;;;;;;;14.50;2.33;;;;;;;;;;4993073;28;20652;-68
2023/01/14 01:54:22;;;;;;;16.00;2.03;;;;;;;;;;4976288;28;20196;-68
2023/01/14 01:56:48;;;;;;;15.73;2.13;;;;;;;;;;4992420;28;20241;-68
2023/01/14 01:59:19;;;;;;;16.87;2.30;;;;;;;;;;4990016;28;20192;-68
2023/01/14 02:01:45;;;;;;;16.77;2.47;;;;;;;;;;4979202;28;20211;-68
2023/01/14 02:04:11;;;;;;;19.20;2.47;;;;;;;;;;4987433;28;20283;-68
2023/01/14 02:06:38;;;;;;;17.40;2.22;;;;;;;;;;4988097;28;20235;-68
2023/01/14 02:09:04;;;;;;;16.98;2.45;;;;;;;;;;4989319;28;20202;-68
2023/01/14 02:12:17;;;;;;;14.60;2.40;;;;;;;;;;4983563;28;20201;-68
2023/01/14 02:15:18;;;;;;;13.57;2.38;;;;;;;;;;4985328;28;20671;-68
2023/01/14 02:18:08;;;;;;;13.27;2.20;;;;;;;;;;4996060;28;20187;-68
2023/01/14 02:20:39;;;;;;;15.90;2.55;;;;;;;;;;4984822;28;20576;-68
2023/01/14 02:23:46;;;;;;;15.13;2.30;;;;;;;;;;4985650;28;20180;-68
2023/01/14 02:26:35;;;;;;;12.52;2.22;;;;;;;;;;4971111;28;20258;-68
2023/01/14 02:29:19;;;;;;;15.00;2.30;;;;;;;;;;4991460;28;20191;-68
2023/01/14 02:31:56;;;;;;;12.75;1.98;;;;;;;;;;4980621;28;20286;-68
2023/01/14 02:34:34;;;;;;;17.52;2.58;;;;;;;;;;4980985;28;20518;-68
2023/01/14 02:37:11;;;;;;;13.65;2.35;;;;;;;;;;4990037;28;20637;-68
2023/01/14 02:39:46;;;;;;;19.60;2.20;;;;;;;;;;4985274;28;20699;-69
2023/01/14 02:45:19;;;;;;;19.10;3.30;;;;;;;;;;4981174;28;20230;-65
2023/01/14 02:47:47;;;;;;;15.05;2.83;;;;;;;;;;4987826;28;20207;-67
2023/01/14 02:50:14;;;;;;;14.90;2.57;;;;;;;;;;4990913;28;20207;-68
2023/01/14 02:52:39;;;;;;;19.98;3.40;;;;;;;;;;4971957;28;20203;-68
2023/01/14 02:55:31;;;;;;;21.27;2.97;;;;;;;;;;4990563;28;20208;-68
2023/01/14 02:58:27;;;;;;;20.98;2.80;;;;;;;;;;4993773;28;20194;-68
2023/01/14 03:01:23;;;;;;;27.47;4.73;;;;;;;;;;4971514;28;20216;-68
2023/01/14 03:04:16;;;;;;;17.37;2.77;;;;;;;;;;4996925;28;20213;-68
2023/01/14 03:07:17;;;;;;;18.23;2.97;;;;;;;;;;4989951;28;20716;-69
2023/01/14 03:09:55;;;;;;;22.53;3.13;;;;;;;;;;4987944;28;20258;-68
2023/01/14 03:12:32;;;;;;;23.00;3.20;;;;;;;;;;4990871;28;20195;-68
2023/01/14 03:15:27;;;;;;;18.43;2.87;;;;;;;;;;4997068;28;20581;-68
2023/01/14 03:18:14;;;;;;;18.23;2.73;;;;;;;;;;4990419;28;20234;-68
2023/01/14 03:20:43;;;;;;;23.63;4.07;;;;;;;;;;4993233;28;20730;-68
2023/01/14 03:23:15;;;;;;;19.57;3.23;;;;;;;;;;4980657;28;20238;-68
2023/01/14 03:25:45;;;;;;;16.77;2.90;;;;;;;;;;4986283;28;20235;-67
2023/01/14 03:28:15;;;;;;;22.40;3.47;;;;;;;;;;4989475;28;20215;-68
2023/01/14 03:30:45;;;;;;;19.97;3.03;;;;;;;;;;4973947;28;20215;-68
2023/01/14 03:33:17;;;;;;;19.67;3.10;;;;;;;;;;4973162;28;20204;-67
2023/01/14 03:35:44;;;;;;;21.50;3.50;;;;;;;;;;4981714;28;20603;-70
2023/01/14 03:38:15;;;;;;;21.83;4.17;;;;;;;;;;4994202;28;20714;-67
2023/01/14 03:40:42;;;;;;;20.53;3.77;;;;;;;;;;4989025;28;20199;-68
2023/01/14 03:43:37;;;;;;;24.40;3.70;;;;;;;;;;4988253;28;20200;-68
2023/01/14 03:46:02;;;;;;;20.23;3.07;;;;;;;;;;4997205;28;20655;-68
2023/01/14 03:48:29;;;;;;;23.43;4.13;;;;;;;;;;4990468;28;20219;-68
2023/01/14 03:51:12;;;;;;;22.40;4.00;;;;;;;;;;5000503;28;20195;-68
2023/01/14 03:54:05;;;;;;;26.70;5.47;;;;;;;;;;4978609;28;20227;-68
2023/01/14 03:56:48;;;;;;;20.17;3.47;;;;;;;;;;5002542;28;20186;-68
2023/01/14 03:59:19;;;;;;;24.13;3.03;;;;;;;;;;4982270;28;20262;-68
2023/01/14 04:01:52;;;;;;;18.80;3.50;;;;;;;;;;4985368;28;20196;-68
2023/01/14 04:04:19;;;;;;;25.10;3.50;;;;;;;;;;4983183;28;20195;-68
2023/01/14 04:06:45;;;;;;;28.03;4.23;;;;;;;;;;4987979;28;20239;-68
2023/01/14 04:09:10;;;;;;;25.03;3.50;;;;;;;;;;4992088;28;20219;-68
2023/01/14 04:11:36;;;;;;;22.93;3.80;;;;;;;;;;4972852;28;20267;-68
2023/01/14 04:16:47;;;;;;;26.73;4.83;;;;;;;;;;4986325;28;20195;-68
2023/01/14 04:19:13;;;;;;;25.50;5.07;;;;;;;;;;4994064;28;20221;-68
2023/01/14 04:21:38;;;;;;;27.27;3.83;;;;;;;;;;4988624;28;20192;-67
2023/01/14 04:24:03;;;;;;;31.17;5.07;;;;;;;;;;5005422;28;20194;-67
2023/01/14 04:26:29;;;;;;;35.97;5.33;;;;;;;;;;4992107;28;20235;-67
2023/01/14 04:28:55;;;;;;;24.97;4.57;;;;;;;;;;5003182;28;20194;-67
2023/01/14 04:31:21;;;;;;;34.53;4.27;;;;;;;;;;4982068;28;20187;-67
2023/01/14 04:33:46;;;;;;;20.83;3.67;;;;;;;;;;4986182;28;21003;-67
2023/01/14 04:36:12;;;;;;;26.53;5.00;;;;;;;;;;4989714;28;20651;-67
2023/01/14 04:38:37;;;;;;;31.93;4.33;;;;;;;;;;4989269;28;20270;-67
2023/01/14 04:41:03;;;;;;;28.57;4.13;;;;;;;;;;4986560;28;20245;-67
2023/01/14 04:43:28;;;;;;;31.83;4.50;;;;;;;;;;4988768;28;20234;-67
2023/01/14 04:45:54;;;;;;;31.23;5.20;;;;;;;;;;4988487;28;20195;-68
2023/01/14 04:48:21;;;;;;;33.00;4.30;;;;;;;;;;4998355;28;20539;-67
2023/01/14 04:50:50;;;;;;;38.07;5.03;;;;;;;;;;4988860;28;20195;-66
2023/01/14 04:53:26;;;;;;;31.60;4.73;;;;;;;;;;4990340;28;20205;-66
2023/01/14 04:55:53;;;;;;;29.57;4.83;;;;;;;;;;4982179;28;20671;-67
2023/01/14 04:58:19;;;;;;;30.60;4.23;;;;;;;;;;4999730;28;20367;-66
2023/01/14 05:00:45;;;;;;;23.30;4.27;;;;;;;;;;4993452;28;20215;-66
2023/01/14 05:03:13;;;;;;;35.87;5.27;;;;;;;;;;4982510;28;20543;-67
2023/01/14 05:05:39;;;;;;;32.47;4.27;;;;;;;;;;4986327;28;20251;-66
2023/01/14 05:08:07;;;;;;;36.77;5.27;;;;;;;;;;4994266;28;20376;-66
2023/01/14 05:10:33;;;;;;;35.27;4.47;;;;;;;;;;4987196;28;20551;-66
2023/01/14 05:13:00;;;;;;;39.93;5.27;;;;;;;;;;4985235;28;20567;-67
2023/01/14 05:15:34;;;;;;;36.43;5.10;;;;;;;;;;5004217;28;20193;-66
2023/01/14 05:18:00;;;;;;;38.00;5.43;;;;;;;;;;4998641;28;20184;-67
2023/01/14 05:20:26;;;;;;;31.90;4.50;;;;;;;;;;4992674;28;20283;-66
2023/01/14 05:22:58;;;;;;;36.83;4.97;;;;;;;;;;4982066;28;20196;-66
2023/01/14 05:25:23;;;;;;;31.00;4.50;;;;;;;;;;4984054;28;21370;-66
2023/01/14 05:27:49;;;;;;;31.77;5.57;;;;;;;;;;4989019;28;20211;-66
2023/01/14 05:30:14;;;;;;;29.83;5.30;;;;;;;;;;4987835;28;20199;-66
2023/01/14 05:32:40;;;;;;;30.80;4.80;;;;;;;;;;4987298;28;20198;-66
2023/01/14 05:35:06;;;;;;;31.33;4.53;;;;;;;;;;5001297;28;20209;-66
2023/01/14 05:37:33;;;;;;;32.67;4.07;;;;;;;;;;4983230;28;20187;-67
2023/01/14 05:39:58;;;;;;;32.00;4.77;;;;;;;;;;4979332;28;20199;-67
2023/01/14 05:47:54;;;;;;;29.23;4.07;;;;;;;;;;4976386;28;20226;-66
2023/01/14 05:50:19;;;;;;;24.70;4.17;;;;;;;;;;4987681;28;20203;-66
2023/01/14 05:52:45;;;;;;;38.93;4.97;;;;;;;;;;4976280;28;20581;-67
2023/01/14 05:55:10;;;;;;;35.93;5.03;;;;;;;;;;4988006;28;20218;-66
2023/01/14 05:57:35;;;;;;;40.10;5.23;;;;;;;;;;4989731;28;20191;-66
2023/01/14 06:00:01;;;;;;;51.13;5.77;;;;;;;;;;4989983;28;20331;-66
2023/01/14 06:07:56;;;;;;;36.83;5.00;;;;;;;;;;4990883;28;20666;-66
2023/01/14 06:10:24;;;;;;;22.33;4.43;;;;;;;;;;4991878;28;20636;-66
2023/01/14 06:13:02;;;;;;;37.53;4.87;;;;;;;;;;4982405;28;20196;-67
2023/01/14 06:15:33;;;;;;;29.07;4.63;;;;;;;;;;5003582;28;20561;-67
2023/01/14 06:18:15;;;;;;;34.53;5.40;;;;;;;;;;4982024;28;20196;-67
2023/01/14 06:20:44;;;;;;;28.17;4.17;;;;;;;;;;5001571;28;20187;-67
2023/01/14 06:23:09;;;;;;;25.53;4.67;;;;;;;;;;4982786;28;20203;-66
2023/01/14 06:25:35;;;;;;;28.47;4.03;;;;;;;;;;4976841;28;20235;-67
2023/01/14 06:28:01;;;;;;;33.07;5.63;;;;;;;;;;4989846;28;20221;-67
2023/01/14 06:30:28;;;;;;;39.63;5.37;;;;;;;;;;5010188;28;20194;-67
2023/01/14 06:32:54;;;;;;;30.20;4.73;;;;;;;;;;4982792;28;20191;-67
2023/01/14 06:35:19;;;;;;;25.30;3.73;;;;;;;;;;4990696;28;20214;-67
2023/01/14 06:37:45;;;;;;;33.80;4.27;;;;;;;;;;4976629;28;20196;-67
2023/01/14 06:40:12;;;;;;;32.47;4.40;;;;;;;;;;5000173;28;20240;-67
2023/01/14 06:42:40;;;;;;;32.80;4.47;;;;;;;;;;4991718;28;20545;-68
2023/01/14 06:45:09;;;;;;;29.67;5.17;;;;;;;;;;4999409;28;20553;-67
2023/01/14 06:47:34;;;;;;;37.60;3.70;;;;;;;;;;4986751;28;20212;-67
2023/01/14 06:49:59;;;;;;;28.30;3.80;;;;;;;;;;4992986;28;20396;-67
2023/01/14 06:52:25;;;;;;;24.53;3.50;;;;;;;;;;4991143;28;20707;-67
2023/01/14 06:54:52;;;;;;;44.27;4.63;;;;;;;;;;4984939;28;20199;-67
2023/01/14 06:57:18;;;;;;;42.17;4.47;;;;;;;;;;4977611;28;20203;-67
2023/01/14 06:59:44;;;;;;;29.13;3.97;;;;;;;;;;4990055;28;20220;-68
2023/01/14 07:02:12;;;;;;;26.23;3.67;;;;;;;;;;4985130;28;20210;-68
2023/01/14 07:04:38;;;;;;;31.60;4.17;;;;;;;;;;4990509;28;20254;-67
2023/01/14 07:07:04;;;;;;;30.77;3.83;;;;;;;;;;4987874;28;20239;-67
2023/01/14 07:09:29;;;;;;;31.40;4.00;;;;;;;;;;5000083;28;20199;-67
2023/01/14 07:11:55;;;;;;;25.77;3.50;;;;;;;;;;4996145;28;20203;-68
2023/01/14 07:14:20;;;;;;;31.80;4.70;;;;;;;;;;4995944;28;20190;-68
2023/01/14 07:16:45;;;;;;;24.33;4.00;;;;;;;;;;4988385;28;20294;-68
2023/01/14 07:19:11;;;;;;;29.20;3.80;;;;;;;;;;4995384;28;20693;-67
2023/01/14 07:21:37;;;;;;;29.67;3.37;;;;;;;;;;4978276;28;20231;-67
2023/01/14 07:24:03;;;;;;;25.40;3.53;;;;;;;;;;5002144;28;20194;-68
2023/01/14 07:26:29;;;;;;;35.33;3.87;;;;;;;;;;4990499;28;20228;-67
2023/01/14 07:28:54;;;;;;;35.10;4.40;;;;;;;;;;4987173;28;20199;-67
2023/01/14 07:31:20;;;;;;;18.03;3.03;;;;;;;;;;4988205;28;20190;-68
2023/01/14 07:33:45;;;;;;;23.87;3.30;;;;;;;;;;4998841;28;20590;-68
2023/01/14 07:36:11;;;;;;;25.97;4.27;;;;;;;;;;4998910;28;20232;-67
2023/01/14 07:38:36;;;;;;;25.47;3.70;;;;;;;;;;5001614;28;20190;-67
2023/01/14 07:41:01;;;;;;;26.23;3.67;;;;;;;;;;5002455;28;20252;-67
2023/01/14 07:43:28;;;;;;;26.03;3.57;;;;;;;;;;5002473;28;20194;-67
2023/01/14 07:45:58;;;;;;;31.60;3.57;;;;;;;;;;5003551;28;20183;-67
2023/01/14 07:48:23;;;;;;;25.13;3.87;;;;;;;;;;5000494;28;20198;-68
2023/01/14 07:50:49;;;;;;;24.60;3.57;;;;;;;;;;5004689;28;20326;-67
2023/01/14 07:53:14;;;;;;;26.63;3.30;;;;;;;;;;4994409;28;20555;-68
2023/01/14 07:55:39;;;;;;;18.27;3.00;;;;;;;;;;4991292;28;20199;-67
2023/01/14 07:58:05;;;;;;;32.53;3.37;;;;;;;;;;5005493;28;20384;-68
2023/01/14 08:00:31;;;;;;;24.93;3.80;;;;;;;;;;5003047;28;20542;-67
2023/01/14 08:02:56;;;;;;;27.63;4.13;;;;;;;;;;4987671;28;20191;-67
2023/01/14 08:05:22;;;;;;;25.87;3.23;;;;;;;;;;4989836;28;20206;-68
2023/01/14 08:07:47;;;;;;;25.93;3.30;;;;;;;;;;4995903;28;20214;-68
2023/01/14 08:10:12;;;;;;;27.90;3.37;;;;;;;;;;4991688;28;20206;-68
2023/01/14 08:12:38;;;;;;;25.10;3.67;;;;;;;;;;4988607;28;20694;-68
2023/01/14 08:15:10;;;;;;;25.33;3.60;;;;;;;;;;4988989;28;20218;-68
2023/01/14 08:17:35;;;;;;;27.20;2.97;;;;;;;;;;4983364;28;20187;-69
2023/01/14 08:20:01;;;;;;;25.47;3.23;;;;;;;;;;5000820;28;20209;-69
2023/01/14 08:22:28;;;;;;;24.80;3.20;;;;;;;;;;4999173;28;20504;-69
2023/01/14 08:24:54;;;;;;;22.10;3.00;;;;;;;;;;4984693;28;20647;-70
2023/01/14 08:27:19;;;;;;;29.47;3.97;;;;;;;;;;4991723;28;20215;-69
2023/01/14 08:29:45;;;;;;;22.83;3.77;;;;;;;;;;5000024;28;20542;-70
2023/01/14 08:32:15;;;;;;;25.67;4.47;;;;;;;;;;4984083;28;20192;-69
2023/01/14 08:34:40;;;;;;;21.13;2.90;;;;;;;;;;4992234;28;20206;-69
2023/01/14 08:37:05;;;;;;;23.30;3.17;;;;;;;;;;5001633;28;20187;-70
2023/01/14 08:39:31;;;;;;;18.30;2.90;;;;;;;;;;4987360;28;20203;-69
2023/01/14 08:41:57;;;;;;;14.63;2.80;;;;;;;;;;4988850;28;20234;-69
2023/01/14 08:44:23;;;;;;;27.00;3.60;;;;;;;;;;4999109;28;20281;-70
2023/01/14 08:46:48;;;;;;;22.23;2.70;;;;;;;;;;4990268;28;20283;-69
2023/01/14 08:49:13;;;;;;;18.10;3.37;;;;;;;;;;4991683;28;20191;-69
2023/01/14 08:51:39;;;;;;;18.00;3.13;;;;;;;;;;4976110;28;20471;-70
2023/01/14 08:54:04;;;;;;;18.77;3.20;;;;;;;;;;4982466;28;20560;-69
2023/01/14 08:56:30;;;;;;;17.67;2.70;;;;;;;;;;4982988;28;20274;-70
2023/01/14 08:58:55;;;;;;;23.73;2.97;;;;;;;;;;4975065;28;20245;-70
2023/01/14 09:01:20;;;;;;;18.33;3.50;;;;;;;;;;4982165;28;20218;-69
2023/01/14 09:03:46;;;;;;;14.87;2.37;;;;;;;;;;4977774;28;20884;-69
2023/01/14 09:06:14;;;;;;;19.37;3.47;;;;;;;;;;4980220;28;20190;-71
2023/01/14 09:17:06;;;;;;;20.97;3.27;;;;;;;;;;4996022;28;20263;-69
2023/01/14 09:19:34;;;;;;;14.10;3.17;;;;;;;;;;4984945;28;20263;-69
2023/01/14 09:21:59;;;;;;;22.53;3.20;;;;;;;;;;4987130;28;20184;-70
2023/01/14 09:24:25;;;;;;;18.73;3.27;;;;;;;;;;5000743;28;20186;-69
2023/01/14 09:26:50;;;;;;;17.10;3.20;;;;;;;;;;4991342;28;20231;-69
2023/01/14 09:29:16;;;;;;;13.70;3.20;;;;;;;;;;4993191;28;20584;-69
2023/01/14 09:31:41;;;;;;;15.33;3.23;;;;;;;;;;4991782;28;20184;-69
2023/01/14 09:34:07;;;;;;;16.70;2.97;;;;;;;;;;4984989;28;20575;-70
2023/01/14 09:36:32;;;;;;;18.53;3.07;;;;;;;;;;4985000;28;20294;-69
2023/01/14 09:38:57;;;;;;;16.70;3.13;;;;;;;;;;5007252;28;20582;-69
2023/01/14 09:41:32;;;;;;;17.50;3.13;;;;;;;;;;5005195;28;20198;-70
2023/01/14 09:44:00;;;;;;;16.23;3.37;;;;;;;;;;4994494;28;20194;-69
2023/01/14 09:46:27;;;;;;;12.60;2.77;;;;;;;;;;4995507;28;20187;-69
2023/01/14 09:49:00;;;;;;;15.23;2.70;;;;;;;;;;4996077;28;20361;-69
2023/01/14 09:51:34;;;;;;;10.40;3.37;;;;;;;;;;4978392;28;20195;-69
2023/01/14 09:54:18;;;;;;;13.03;3.00;;;;;;;;;;5002789;28;20668;-70
2023/01/14 09:56:51;;;;;;;16.13;2.90;;;;;;;;;;4996943;28;20200;-69
2023/01/14 09:59:55;;;;;;;17.87;3.03;;;;;;;;;;4994169;28;20618;-69
2023/01/14 10:02:32;;;;;;;12.80;2.97;;;;;;;;;;4982698;28;20203;-70
2023/01/14 10:05:18;;;;;;;14.53;3.40;;;;;;;;;;5002708;28;20217;-70
2023/01/14 10:07:44;;;;;;;11.73;2.47;;;;;;;;;;4989456;28;20231;-70
2023/01/14 10:10:25;;;;;;;10.97;3.00;;;;;;;;;;4998789;28;20621;-70
2023/01/14 10:12:53;;;;;;;8.87;2.77;;;;;;;;;;4999299;28;20198;-70
2023/01/14 10:15:18;;;;;;;10.40;2.70;;;;;;;;;;5003971;28;20203;-71
2023/01/14 10:17:56;;;;;;;13.73;2.77;;;;;;;;;;5005223;28;20195;-69
2023/01/14 10:20:29;;;;;;;11.47;2.63;;;;;;;;;;4990567;28;20674;-70
2023/01/14 10:23:17;;;;;;;12.23;2.30;;;;;;;;;;4997150;28;20325;-70
2023/01/14 10:25:51;;;;;;;10.80;2.53;;;;;;;;;;4996575;28;20547;-69
2023/01/14 10:28:21;;;;;;;12.93;2.00;;;;;;;;;;5004383;28;20221;-71
2023/01/14 10:30:49;;;;;;;13.00;2.47;;;;;;;;;;5006238;28;20198;-70
2023/01/14 10:33:15;;;;;;;10.90;2.60;;;;;;;;;;5001426;28;20201;-70
2023/01/14 10:35:48;;;;;;;7.53;2.20;;;;;;;;;;5003017;28;20202;-70
2023/01/14 10:38:18;;;;;;;11.97;2.47;;;;;;;;;;5003679;28;20183;-70
2023/01/14 10:40:45;;;;;;;8.93;2.60;;;;;;;;;;4998787;28;20557;-69
2023/01/14 10:43:31;;;;;;;9.03;1.97;;;;;;;;;;4999418;28;20192;-70
2023/01/14 10:45:57;;;;;;;10.57;2.10;;;;;;;;;;5000300;28;20225;-69
2023/01/14 10:48:24;;;;;;;9.80;2.27;;;;;;;;;;5004497;28;20214;-68
2023/01/14 10:50:51;;;;;;;10.27;1.80;;;;;;;;;;5006352;28;20607;-69
2023/01/14 10:53:24;;;;;;;7.67;2.30;;;;;;;;;;5000239;28;20305;-70
2023/01/14 10:55:58;;;;;;;9.63;1.70;;;;;;;;;;5006764;28;20289;-69
2023/01/14 10:58:44;;;;;;;8.20;2.20;;;;;;;;;;5003042;28;20191;-69
2023/01/14 11:01:11;;;;;;;8.17;1.93;;;;;;;;;;5006256;28;20265;-68
2023/01/14 11:03:42;;;;;;;8.47;1.97;;;;;;;;;;5002793;28;20710;-68
2023/01/14 11:06:16;;;;;;;9.43;1.60;;;;;;;;;;5007016;28;20636;-68
2023/01/14 11:08:51;;;;;;;9.73;1.90;;;;;;;;;;5001765;28;20267;-68
2023/01/14 11:11:22;;;;;;;5.73;1.20;;;;;;;;;;5008375;28;20202;-70
2023/01/14 11:13:50;;;;;;;6.37;1.70;;;;;;;;;;4987322;28;20199;-69
2023/01/14 11:16:24;;;;;;;4.83;1.10;;;;;;;;;;5005632;28;20191;-68
2023/01/14 11:18:53;;;;;;;7.27;1.60;;;;;;;;;;5005952;28;20276;-69
2023/01/14 11:21:21;;;;;;;5.93;1.63;;;;;;;;;;5004936;28;20461;-69
2023/01/14 11:24:01;;;;;;;9.93;2.00;;;;;;;;;;4993969;28;20298;-68
2023/01/14 11:26:37;;;;;;;8.17;1.77;;;;;;;;;;4992676;28;21039;-69
2023/01/14 11:29:18;;;;;;;10.03;2.00;;;;;;;;;;4994961;28;20210;-68
2023/01/14 11:31:45;;;;;;;9.80;1.90;;;;;;;;;;4998717;28;20272;-68
2023/01/14 11:34:32;;;;;;;6.47;1.80;;;;;;;;;;4994894;28;20196;-68
2023/01/14 11:37:18;;;;;;;4.17;1.63;;;;;;;;;;5004433;28;20434;-68
2023/01/14 11:39:56;;;;;;;6.72;1.40;;;;;;;;;;5003745;28;20270;-68
2023/01/14 11:42:52;;;;;;;9.67;2.00;;;;;;;;;;4997233;28;20658;-68
2023/01/14 11:45:21;;;;;;;7.03;2.08;;;;;;;;;;5003919;28;20298;-68
2023/01/14 11:47:46;;;;;;;7.90;1.50;;;;;;;;;;4988874;28;20745;-69
2023/01/14 11:50:14;;;;;;;8.07;1.60;;;;;;;;;;4984863;28;20222;-69
2023/01/14 11:52:40;;;;;;;10.10;1.80;;;;;;;;;;5001038;28;20191;-67
2023/01/14 11:55:13;;;;;;;10.10;1.60;;;;;;;;;;4992191;28;20623;-68
2023/01/14 11:57:39;;;;;;;3.67;1.47;;;;;;;;;;4984122;28;20188;-68
2023/01/14 12:00:08;;;;;;;9.67;1.67;;;;;;;;;;4987266;28;20552;-68
2023/01/14 12:02:40;;;;;;;5.80;1.57;;;;;;;;;;4985845;28;20589;-68
2023/01/14 12:05:14;;;;;;;3.93;1.50;;;;;;;;;;4996255;28;20268;-69
2023/01/14 12:07:44;;;;;;;9.50;1.83;;;;;;;;;;5001963;28;20697;-69
2023/01/14 12:10:20;;;;;;;7.47;1.70;;;;;;;;;;5000754;28;20188;-69
2023/01/14 12:18:58;;;;;;;5.75;1.88;;;;;;;;;;4998770;28;20184;-68
2023/01/14 12:21:30;;;;;;;4.20;1.77;;;;;;;;;;4996254;28;20589;-69
2023/01/14 12:24:06;;;;;;;5.40;1.83;;;;;;;;;;4991116;28;20557;-68
2023/01/14 12:26:37;;;;;;;7.68;3.22;;;;;;;;;;4999546;28;20229;-68
2023/01/14 12:29:10;;;;;;;4.40;2.00;;;;;;;;;;4987296;28;20593;-69
2023/01/14 12:31:38;;;;;;;5.78;1.55;;;;;;;;;;4999407;28;20662;-69
2023/01/14 12:34:11;;;;;;;3.33;1.60;;;;;;;;;;4998225;28;20194;-69
2023/01/14 12:36:46;;;;;;;6.38;1.67;;;;;;;;;;4995288;28;20193;-68
2023/01/14 12:45:41;;;;;;;5.10;1.55;;;;;;;;;;4993785;28;20833;-69
2023/01/14 12:48:09;;;;;;;5.50;0.90;;;;;;;;;;4997803;28;20293;-68
2023/01/14 12:51:03;;;;;;;5.38;1.20;;;;;;;;;;5004456;28;20239;-69
2023/01/14 12:53:35;;;;;;;2.97;1.08;;;;;;;;;;4968477;28;20200;-68
2023/01/14 12:56:04;;;;;;;4.07;1.00;;;;;;;;;;4997371;28;20194;-69
2023/01/14 12:58:34;;;;;;;6.10;0.98;;;;;;;;;;4997316;28;20551;-67
2023/01/14 13:01:06;;;;;;;3.30;1.00;;;;;;;;;;4994407;28;20246;-67
2023/01/14 13:03:47;;;;;;;3.10;1.00;;;;;;;;;;4999703;28;20301;-67
2023/01/14 13:06:25;;;;;;;2.42;0.75;;;;;;;;;;4984930;28;20187;-68
2023/01/14 13:08:53;;;;;;;3.47;1.02;;;;;;;;;;5000972;28;20401;-68
2023/01/14 13:11:26;;;;;;;2.08;0.65;;;;;;;;;;5007000;28;20193;-68
2023/01/14 13:13:55;;;;;;;3.97;0.95;;;;;;;;;;5003173;28;20240;-68
2023/01/14 13:16:37;;;;;;;0.85;0.63;;;;;;;;;;5002816;28;20191;-69
2023/01/14 13:19:05;;;;;;;3.22;0.82;;;;;;;;;;5005034;28;20758;-69
2023/01/14 13:22:02;;;;;;;2.83;0.82;;;;;;;;;;5005918;28;20187;-68
2023/01/14 13:24:35;;;;;;;2.97;0.70;;;;;;;;;;4998394;28;20183;-69
2023/01/14 13:27:02;;;;;;;4.88;0.60;;;;;;;;;;5001259;28;20289;-70
2023/01/14 13:29:32;;;;;;;4.40;0.65;;;;;;;;;;5001333;28;20737;-70
2023/01/14 13:31:59;;;;;;;1.08;0.43;;;;;;;;;;5004004;28;20187;-68
2023/01/14 13:34:32;;;;;;;0.95;0.65;;;;;;;;;;4999363;28;20684;-68
2023/01/14 13:37:02;;;;;;;2.92;0.80;;;;;;;;;;5006354;28;20187;-69
2023/01/14 13:39:30;;;;;;;2.08;0.60;;;;;;;;;;5003102;28;20281;-68
2023/01/14 13:41:57;;;;;;;0.77;0.40;;;;;;;;;;5007091;28;20246;-69
2023/01/14 13:44:26;;;;;;;3.35;0.50;;;;;;;;;;4994797;28;20198;-69
2023/01/14 13:47:04;;;;;;;5.38;0.90;;;;;;;;;;5002584;28;20222;-68
2023/01/14 13:49:40;;;;;;;4.40;0.70;;;;;;;;;;5006095;28;20186;-68
2023/01/14 13:52:15;;;;;;;1.13;0.57;;;;;;;;;;5009145;28;20658;-68
2023/01/14 13:54:42;;;;;;;76.45;4.60;;;;;;;;;;5003395;28;20225;-68
2023/01/14 13:57:36;;;;;;;3.45;0.68;;;;;;;;;;5005433;28;20458;-67
2023/01/14 14:00:06;;;;;;;2.88;0.73;;;;;;;;;;4999360;28;20207;-68
2023/01/14 14:02:43;;;;;;;3.83;0.68;;;;;;;;;;5002112;28;20194;-69
2023/01/14 14:05:14;;;;;;;4.32;0.65;;;;;;;;;;5007368;28;20620;-69
2023/01/14 14:08:05;;;;;;;1.13;0.47;;;;;;;;;;5006809;28;20203;-71
2023/01/14 14:10:34;;;;;;;3.13;0.60;;;;;;;;;;5003061;28;20268;-69
2023/01/14 14:16:04;;;;;;;2.17;0.57;;;;;;;;;;5002108;28;20269;-70
2023/01/14 14:18:37;;;;;;;1.90;0.70;;;;;;;;;;5007458;28;20588;-70
2023/01/14 14:21:14;;;;;;;2.40;1.05;;;;;;;;;;5003529;28;20187;-72
2023/01/14 14:23:46;;;;;;;0.65;0.50;;;;;;;;;;4987494;28;20202;-71
2023/01/14 14:26:17;;;;;;;2.45;0.73;;;;;;;;;;5002059;28;22153;-71
2023/01/14 14:28:46;;;;;;;1.00;0.50;;;;;;;;;;4998541;28;20252;-69
2023/01/14 14:31:14;;;;;;;1.33;0.50;;;;;;;;;;4992247;28;20183;-69
2023/01/14 14:33:42;;;;;;;3.42;0.90;;;;;;;;;;5005411;28;20476;-70
2023/01/14 14:36:21;;;;;;;3.03;0.63;;;;;;;;;;5001860;28;20206;-68
2023/01/14 14:38:51;;;;;;;1.00;0.68;;;;;;;;;;5003975;28;20188;-68
2023/01/14 14:41:22;;;;;;;2.58;1.13;;;;;;;;;;4997276;28;20191;-67
2023/01/14 14:43:59;;;;;;;1.70;0.70;;;;;;;;;;5002791;28;20248;-68
2023/01/14 14:46:25;;;;;;;2.28;0.77;;;;;;;;;;5005004;28;20191;-67
2023/01/14 14:48:52;;;;;;;1.95;0.73;;;;;;;;;;5006485;28;20207;-68
2023/01/14 14:51:29;;;;;;;1.67;0.55;;;;;;;;;;5004548;28;20186;-67
2023/01/14 14:53:57;;;;;;;3.03;0.80;;;;;;;;;;4996575;28;20198;-68
2023/01/14 14:56:26;;;;;;;1.02;0.60;;;;;;;;;;5005819;28;20540;-69
2023/01/14 14:58:55;;;;;;;1.60;0.60;;;;;;;;;;4998477;28;20224;-69
2023/01/14 15:01:34;;;;;;;1.48;0.60;;;;;;;;;;5003332;28;20219;-68
2023/01/14 15:04:00;;;;;;;2.30;1.10;;;;;;;;;;5003748;28;20186;-68
2023/01/14 15:06:30;;;;;;;2.50;1.17;;;;;;;;;;5005830;28;20183;-68
2023/01/14 15:09:00;;;;;;;7.32;2.05;;;;;;;;;;5003078;28;20226;-68
2023/01/14 15:11:30;;;;;;;5.03;1.40;;;;;;;;;;4995013;28;20217;-68
2023/01/14 15:13:56;;;;;;;2.30;1.33;;;;;;;;;;5002316;28;20191;-68
2023/01/14 15:16:29;;;;;;;1.15;0.90;;;;;;;;;;5006009;28;20191;-67
2023/01/14 15:18:57;;;;;;;2.05;0.82;;;;;;;;;;5001889;28;20674;-69
2023/01/14 15:21:27;;;;;;;2.22;1.08;;;;;;;;;;5003150;28;20259;-68
2023/01/14 15:24:05;;;;;;;10.77;5.15;;;;;;;;;;5003545;28;20253;-69
2023/01/14 15:26:33;;;;;;;2.83;1.15;;;;;;;;;;5006360;28;20313;-68
2023/01/14 15:28:59;;;;;;;1.67;0.95;;;;;;;;;;4995575;28;20223;-68
2023/01/14 15:31:43;;;;;;;1.75;0.90;;;;;;;;;;5003367;28;20199;-68
2023/01/14 15:34:15;;;;;;;2.25;1.05;;;;;;;;;;5003419;28;20187;-67